Cocoa, Florida
Current Conditions -  °F | °C
As of 7:58 PM on Friday 24 Oct 2014 (Local Time) from KCOF Reporting Station
Overcast Overcast  
Wind Chill: 74°   Ceiling: 4700
Heat Index: 74°   Visibility: 10mi
Dew Point: 57°   Wind: 13mph
Humidity: 55%   Direction: 20°NNE
Pressure: 29.92"   Gusts: NA
Location:  28.35°N, 80.73°W
Report Text: KCOF 242358Z AUTO 02011KT 10SM OVC047 24/14 A2992 RMK AO2 SLP136 T02360140 10259 20235 53004
Loading
Personal Weather Stations






























Interactive Weather Map
Tropical Storm Tracking
New forecast layout! Learn more

10-Day Weather Forecast

Advertisements
Track Severe Weather on mobile